Time;durP1;ratioP1;P1;durP2;ratioP2;P2;SDS_P1;SDS_P2;PMS_P1;PMS_P2;Temp;Humidity;BMP_temperature;BMP_pressure;BME280_temperature;BME280_humidity;BME280_pressure;Samples;Min_cycle;Max_cycle;Signal;HPM_P1;HPM_P2
2022/12/10 00:01:11;;;;;;;15.50;11.80;;;;;;;-0.10;88.21;97389.92;85266;1287;22486;-68
2022/12/10 00:03:12;;;;;;;21.70;12.60;;;;;;;-0.09;88.11;97391.27;85084;1285;99569;-68
2022/12/10 00:05:13;;;;;;;12.50;11.20;;;;;;;-0.09;87.91;97399.71;85064;1286;23961;-68
2022/12/10 00:07:14;;;;;;;12.20;11.00;;;;;;;-0.09;88.28;97397.48;85257;1284;24455;-69
2022/12/10 00:09:17;;;;;;;13.60;12.20;;;;;;;-0.08;87.96;97398.31;85069;1286;99760;-69
2022/12/10 00:11:21;;;;;;;14.20;11.40;;;;;;;-0.07;87.99;97402.59;85106;1285;24254;-68
2022/12/10 00:13:22;;;;;;;16.80;12.50;;;;;;;-0.07;88.03;97403.45;85391;1286;22496;-68
2022/12/10 00:15:23;;;;;;;14.40;12.40;;;;;;;-0.06;88.13;97405.31;84919;1286;100579;-67
2022/12/10 00:17:24;;;;;;;15.80;13.50;;;;;;;-0.05;88.05;97407.55;85222;1283;26567;-68
2022/12/10 00:19:25;;;;;;;15.80;14.00;;;;;;;-0.05;87.97;97412.70;85090;1286;22503;-68
2022/12/10 00:21:29;;;;;;;19.00;13.50;;;;;;;-0.04;88.09;97410.11;85039;1283;99612;-69
2022/12/10 00:23:32;;;;;;;19.60;13.50;;;;;;;-0.04;87.96;97405.27;86101;1279;25469;-68
2022/12/10 00:25:33;;;;;;;16.50;14.10;;;;;;;-0.03;88.26;97403.34;85382;1286;24509;-70
2022/12/10 00:27:33;;;;;;;19.30;13.30;;;;;;;-0.03;88.10;97403.33;85054;1293;100139;-69
2022/12/10 00:29:34;;;;;;;17.30;14.10;;;;;;;-0.03;87.98;97404.38;85110;1286;26476;-68
2022/12/10 00:31:37;;;;;;;17.80;14.70;;;;;;;-0.03;88.17;97405.21;85193;1283;22495;-69
2022/12/10 00:33:39;;;;;;;18.80;12.70;;;;;;;-0.03;88.21;97409.36;85287;1287;99621;-69
2022/12/10 00:35:39;;;;;;;17.80;15.00;;;;;;;-0.01;88.03;97412.95;85069;1293;25232;-69
2022/12/10 00:37:40;;;;;;;19.60;13.80;;;;;;;-0.02;88.17;97413.30;85099;1286;25564;-70
2022/12/10 00:39:41;;;;;;;15.20;13.30;;;;;;;-0.01;88.24;97413.80;85034;1286;98579;-70
2022/12/10 00:41:43;;;;;;;18.00;14.50;;;;;;;-0.01;88.29;97416.38;85193;1290;22523;-69
2022/12/10 00:43:45;;;;;;;16.30;13.80;;;;;;;-0.00;88.23;97416.04;85201;1305;22466;-70
2022/12/10 00:45:45;;;;;;;16.00;13.30;;;;;;;0.00;88.29;97415.83;86307;1293;100420;-70
2022/12/10 00:47:46;;;;;;;19.40;11.60;;;;;;;0.01;87.98;97415.14;86910;1300;22964;-69
2022/12/10 00:49:47;;;;;;;13.70;12.20;;;;;;;0.01;88.34;97415.46;85962;1291;22605;-69
2022/12/10 00:51:48;;;;;;;13.00;11.70;;;;;;;0.02;88.28;97413.53;85895;1287;99453;-69
2022/12/10 00:53:51;;;;;;;13.30;11.90;;;;;;;0.02;88.29;97412.48;86019;1300;24338;-69
2022/12/10 00:55:53;;;;;;;12.80;11.40;;;;;;;0.03;88.29;97410.23;85772;1290;24381;-69
2022/12/10 00:57:53;;;;;;;12.90;11.30;;;;;;;0.04;88.36;97410.20;85435;1290;99887;-69
2022/12/10 00:59:54;;;;;;;11.90;10.70;;;;;;;0.04;88.24;97412.95;85194;1294;25018;-70
2022/12/10 01:01:55;;;;;;;15.10;11.50;;;;;;;0.05;88.05;97411.02;85048;1292;22480;-69
2022/12/10 01:04:00;;;;;;;14.20;12.40;;;;;;;0.05;87.96;97412.07;85272;1300;99304;-70
2022/12/10 01:06:28;;;;;;;13.50;11.60;;;;;;;0.06;88.17;97410.84;86053;1285;24268;-69
2022/12/10 01:08:29;;;;;;;14.00;12.40;;;;;;;0.07;88.35;97412.02;85022;1287;98710;-69
2022/12/10 01:10:31;;;;;;;15.00;13.20;;;;;;;0.07;88.27;97413.89;85021;1292;22644;-70
2022/12/10 01:12:32;;;;;;;16.50;13.00;;;;;;;0.07;88.28;97408.56;85056;1287;25463;-70
2022/12/10 01:14:33;;;;;;;17.40;13.50;;;;;;;0.07;88.27;97410.27;85054;1281;99552;-70
2022/12/10 01:16:35;;;;;;;15.30;11.40;;;;;;;0.06;88.15;97408.21;85208;1282;24460;-70
2022/12/10 01:18:37;;;;;;;15.00;12.40;;;;;;;0.06;88.16;97406.85;85182;1283;24744;-69
2022/12/10 01:20:37;;;;;;;14.90;12.70;;;;;;;0.05;88.27;97414.30;84990;1285;99385;-70
2022/12/10 01:22:38;;;;;;;14.60;12.30;;;;;;;0.05;88.38;97418.61;85120;1286;22670;-70
2022/12/10 01:24:39;;;;;;;14.00;12.40;;;;;;;0.06;88.26;97423.80;85150;1291;22946;-71
2022/12/10 01:26:40;;;;;;;12.70;11.40;;;;;;;0.06;88.13;97429.30;85205;1283;99695;-70
2022/12/10 01:28:43;;;;;;;14.70;12.90;;;;;;;0.07;88.37;97429.27;85076;1278;22706;-70
2022/12/10 01:30:44;;;;;;;17.40;13.50;;;;;;;0.07;88.11;97426.51;85807;1293;22585;-70
2022/12/10 01:32:44;;;;;;;15.20;12.80;;;;;;;0.07;88.41;97429.11;85113;1286;99452;-70
2022/12/10 01:34:45;;;;;;;15.90;12.80;;;;;;;0.07;88.37;97438.60;85153;1283;22608;-70
2022/12/10 01:36:52;;;;;;;17.10;13.40;;;;;;;0.08;88.39;97441.50;85057;1285;22556;-70
2022/12/10 01:38:53;;;;;;;15.10;13.50;;;;;;;0.08;88.18;97442.52;85002;1289;99849;-69
2022/12/10 01:40:54;;;;;;;16.60;12.90;;;;;;;0.08;88.33;97446.48;85014;1293;25309;-69
2022/12/10 01:42:55;;;;;;;17.00;13.30;;;;;;;0.09;88.27;97447.69;85238;1296;22607;-69
2022/12/10 01:45:00;;;;;;;16.60;13.70;;;;;;;0.09;88.40;97443.02;84935;1292;99628;-69
2022/12/10 01:47:01;;;;;;;21.60;14.40;;;;;;;0.10;88.33;97439.39;85114;1283;24701;-69
2022/12/10 01:49:05;;;;;;;18.30;14.20;;;;;;;0.10;88.48;97439.37;85054;1297;22659;-69
2022/12/10 01:51:07;;;;;;;15.30;13.30;;;;;;;0.09;88.28;97436.45;85214;1292;99556;-69
2022/12/10 01:53:08;;;;;;;16.00;13.00;;;;;;;0.10;88.36;97436.77;85070;1288;22666;-69
2022/12/10 01:55:48;;;;;;;15.30;13.80;;;;;;;0.10;88.31;97437.46;85276;1293;23548;-70
2022/12/10 01:57:49;;;;;;;15.60;14.00;;;;;;;0.11;88.36;97440.73;85252;1293;99850;-70
2022/12/10 02:00:00;;;;;;;17.40;14.70;;;;;;;0.11;88.26;97442.77;85210;1292;25083;-70
2022/12/10 02:02:07;;;;;;;14.40;12.60;;;;;;;0.12;88.39;97447.42;85136;1289;26468;-69
2022/12/10 02:04:31;;;;;;;15.60;14.00;;;;;;;0.13;88.55;97446.88;85345;1290;22556;-70
2022/12/10 02:07:22;;;;;;;16.40;13.90;;;;;;;0.13;88.32;97452.05;85380;1287;25261;-70
2022/12/10 02:09:38;;;;;;;15.90;14.10;;;;;;;0.14;88.52;97452.20;84872;1301;99846;-69
2022/12/10 02:12:04;;;;;;;15.20;13.60;;;;;;;0.14;88.44;97450.45;86441;1290;227604;-69
2022/12/10 02:14:28;;;;;;;15.50;13.60;;;;;;;0.16;88.49;97448.85;85457;1287;22487;-69
2022/12/10 02:16:34;;;;;;;15.60;14.00;;;;;;;0.17;88.34;97450.71;85156;1287;22485;-70
2022/12/10 02:18:46;;;;;;;14.30;12.80;;;;;;;0.19;88.42;97455.01;85259;1290;25778;-69
2022/12/10 02:20:53;;;;;;;19.70;13.90;;;;;;;0.19;88.48;97453.62;85079;1284;99688;-70
2022/12/10 02:23:06;;;;;;;15.70;13.60;;;;;;;0.19;88.36;97450.85;85230;1287;22470;-69
2022/12/10 02:25:10;;;;;;;16.10;13.90;;;;;;;0.19;88.26;97448.08;85190;1287;22636;-70
2022/12/10 02:27:25;;;;;;;14.80;13.00;;;;;;;0.20;88.31;97445.14;84958;1296;98848;-70
2022/12/10 02:29:28;;;;;;;17.90;13.80;;;;;;;0.20;88.59;97447.36;85086;1290;22536;-69
2022/12/10 02:31:31;;;;;;;17.60;13.90;;;;;;;0.20;88.19;97443.73;84927;1290;22636;-70
2022/12/10 02:33:34;;;;;;;18.00;14.10;;;;;;;0.20;88.30;97448.05;84697;1292;99577;-72
2022/12/10 02:35:38;;;;;;;16.90;13.20;;;;;;;0.21;88.47;97447.49;85132;1287;25092;-70
2022/12/10 02:37:46;;;;;;;13.90;12.50;;;;;;;0.20;88.37;97444.76;85009;1289;24331;-70
2022/12/10 02:39:52;;;;;;;16.70;13.40;;;;;;;0.21;88.52;97452.14;85040;1286;99775;-71
2022/12/10 02:41:55;;;;;;;15.70;12.90;;;;;;;0.21;88.45;97455.44;85411;1284;24204;-70
2022/12/10 02:43:59;;;;;;;15.30;13.10;;;;;;;0.21;88.52;97458.04;85353;1292;22478;-71
2022/12/10 02:46:03;;;;;;;15.70;14.00;;;;;;;0.22;88.52;97459.04;86096;1285;99501;-70
2022/12/10 02:48:05;;;;;;;16.10;13.40;;;;;;;0.22;88.51;97467.48;86199;1276;25744;-71
2022/12/10 02:50:09;;;;;;;15.60;14.00;;;;;;;0.22;88.70;97470.09;86086;1284;25571;-69
2022/12/10 02:52:17;;;;;;;16.90;14.20;;;;;;;0.23;88.56;97473.70;86107;1282;26643;-69
2022/12/10 02:54:39;;;;;;;15.40;13.90;;;;;;;0.24;88.48;97471.09;86076;1294;22474;-70
2022/12/10 02:56:50;;;;;;;15.50;13.90;;;;;;;0.24;88.32;97468.84;85500;1292;99372;-70
2022/12/10 02:58:57;;;;;;;;;;;;;;;0.25;88.36;97470.54;86059;1293;25853;-71
2022/12/10 03:01:16;;;;;;;15.00;13.50;;;;;;;0.24;88.63;97474.35;86078;1299;25671;-70
2022/12/10 03:03:45;;;;;;;14.70;13.30;;;;;;;0.25;88.47;97477.60;85987;1296;98397;-70
2022/12/10 03:05:50;;;;;;;17.00;13.90;;;;;;;0.27;88.50;97480.48;86052;1286;22494;-71
2022/12/10 03:08:16;;;;;;;19.50;13.90;;;;;;;0.27;88.70;97479.78;86241;1293;22665;-70
2022/12/10 03:10:44;;;;;;;15.80;14.20;;;;;;;0.28;88.46;97479.95;86135;1282;22511;-70
2022/12/10 03:12:51;;;;;;;16.80;15.10;;;;;;;0.28;88.63;97480.45;85975;1284;22581;-69
2022/12/10 03:14:57;;;;;;;19.10;14.30;;;;;;;0.29;88.62;97472.81;86739;1289;100621;-70
2022/12/10 03:17:01;;;;;;;19.20;14.60;;;;;;;0.29;88.35;97467.10;86145;1283;22603;-70
2022/12/10 03:19:07;;;;;;;18.60;14.20;;;;;;;0.29;88.49;97470.04;86055;1279;22516;-70
2022/12/10 03:21:09;;;;;;;16.40;14.70;;;;;;;0.30;88.29;97476.58;86365;1283;99327;-70
2022/12/10 03:23:16;;;;;;;18.50;14.40;;;;;;;0.30;88.46;97474.48;86119;1280;22568;-71
2022/12/10 03:25:23;;;;;;;15.40;13.90;;;;;;;0.29;88.65;97480.22;86203;1277;25423;-70
2022/12/10 03:27:29;;;;;;;18.50;15.20;;;;;;;0.31;88.66;97481.39;86018;1276;100130;-71
2022/12/10 03:29:35;;;;;;;18.00;16.00;;;;;;;0.32;88.46;97474.45;85920;1286;22518;-71
2022/12/10 03:31:39;;;;;;;17.50;14.70;;;;;;;0.32;88.81;97468.21;86097;1278;22486;-71
2022/12/10 03:33:45;;;;;;;18.80;14.20;;;;;;;0.33;88.32;97468.71;86165;1287;99444;-71
2022/12/10 03:35:47;;;;;;;17.50;14.90;;;;;;;0.33;88.44;97470.27;85898;1287;25235;-71
2022/12/10 03:37:49;;;;;;;16.90;14.60;;;;;;;0.33;88.52;97479.77;86089;1283;22487;-68
2022/12/10 03:39:50;;;;;;;19.80;14.50;;;;;;;0.33;88.43;97485.98;85965;1283;100565;-70
2022/12/10 03:41:51;;;;;;;17.10;14.80;;;;;;;0.33;88.28;97486.34;86078;1284;24277;-71
2022/12/10 03:43:58;;;;;;;21.30;15.10;;;;;;;0.32;88.38;97486.19;86019;1280;23008;-71
2022/12/10 03:45:59;;;;;;;17.80;14.80;;;;;;;0.33;88.47;97491.33;85949;1276;99433;-71
2022/12/10 03:48:00;;;;;;;19.20;15.60;;;;;;;0.32;88.37;97486.53;86056;1287;22491;-70
2022/12/10 03:50:01;;;;;;;15.60;14.00;;;;;;;0.30;88.32;97483.14;86027;1283;22663;-70
2022/12/10 03:52:03;;;;;;;22.40;15.00;;;;;;;0.30;88.45;97474.14;85922;1286;99365;-70
2022/12/10 03:54:04;;;;;;;21.70;14.30;;;;;;;0.31;88.57;97477.42;86058;1284;22484;-69
2022/12/10 03:56:05;;;;;;;21.70;15.20;;;;;;;0.33;88.40;97487.04;86017;1283;25163;-70
2022/12/10 03:58:06;;;;;;;16.70;14.90;;;;;;;0.34;88.36;97491.84;85916;1283;99493;-71
2022/12/10 04:00:07;;;;;;;18.60;15.20;;;;;;;0.34;88.63;97498.58;85943;1280;22992;-70
2022/12/10 04:02:10;;;;;;;33.80;16.00;;;;;;;0.34;88.46;97503.73;86104;1283;22485;-70
2022/12/10 04:04:11;;;;;;;18.70;14.80;;;;;;;0.34;88.33;97501.33;85933;1284;99205;-70
2022/12/10 04:06:18;;;;;;;18.00;15.60;;;;;;;0.35;88.49;97501.13;85959;1283;23013;-70
2022/12/10 04:08:19;;;;;;;18.30;14.30;;;;;;;0.36;88.65;97507.67;85971;1283;99486;-71
2022/12/10 04:10:20;;;;;;;19.40;15.00;;;;;;;0.35;88.64;97514.26;85947;1284;24332;-71
2022/12/10 04:12:20;;;;;;;16.40;14.50;;;;;;;0.36;88.46;97524.96;86142;1279;22950;-71
2022/12/10 04:16:41;;;;;;;20.00;13.10;;;;;;;0.36;88.47;97538.95;87058;1293;23342;-70
2022/12/10 04:18:42;;;;;;;18.50;14.10;;;;;;;0.36;88.61;97542.75;86730;1283;22514;-70
2022/12/10 04:27:42;;;;;;;14.60;12.70;;;;;;;0.34;88.32;97554.52;86157;1276;98183;-70
2022/12/10 04:29:43;;;;;;;12.80;11.50;;;;;;;0.34;88.77;97555.23;86307;1283;24260;-72
2022/12/10 04:31:44;;;;;;;17.90;13.50;;;;;;;0.34;88.66;97550.23;86095;1279;22479;-70
2022/12/10 04:33:45;;;;;;;18.90;12.70;;;;;;;0.34;88.83;97542.27;85996;1277;99355;-70
2022/12/10 04:35:46;;;;;;;15.50;13.70;;;;;;;0.35;88.75;97533.45;86038;1284;22512;-71
2022/12/10 04:37:47;;;;;;;23.30;13.60;;;;;;;0.35;88.46;97528.27;86198;1277;25230;-71
2022/12/10 04:39:50;;;;;;;16.80;13.20;;;;;;;0.37;88.69;97530.63;86013;1283;99374;-70
2022/12/10 04:41:51;;;;;;;17.30;13.20;;;;;;;0.36;88.71;97533.94;86008;1283;22494;-72
2022/12/10 04:43:53;;;;;;;14.40;13.00;;;;;;;0.35;88.52;97531.88;86091;1277;24344;-71
2022/12/10 04:45:56;;;;;;;17.80;12.50;;;;;;;0.36;88.54;97536.02;85821;1279;99897;-71
2022/12/10 04:47:57;;;;;;;14.40;12.80;;;;;;;0.36;88.80;97539.11;86028;1282;22519;-71
2022/12/10 04:49:58;;;;;;;18.90;14.40;;;;;;;0.36;88.48;97542.74;85885;1279;24362;-70
2022/12/10 04:51:59;;;;;;;17.00;14.10;;;;;;;0.35;88.70;97551.75;85913;1283;98375;-70
2022/12/10 04:54:00;;;;;;;;;;;;;;;0.35;88.56;97551.59;85973;1286;25474;-71
2022/12/10 04:56:01;;;;;;;15.00;12.50;;;;;;;0.32;88.66;97551.84;85980;1276;25983;-70
2022/12/10 04:58:02;;;;;;;13.90;12.30;;;;;;;0.32;88.68;97555.98;86035;1276;99297;-70
2022/12/10 05:00:03;;;;;;;15.40;13.10;;;;;;;0.32;88.67;97559.81;86004;1283;22549;-71
2022/12/10 05:02:05;;;;;;;14.80;12.40;;;;;;;0.30;88.59;97552.23;86000;1283;22517;-70
2022/12/10 05:04:10;;;;;;;17.60;12.60;;;;;;;0.30;88.62;97546.88;85890;1278;99364;-71
2022/12/10 05:06:13;;;;;;;16.00;13.30;;;;;;;0.30;88.96;97548.96;85881;1279;25356;-71
2022/12/10 05:08:14;;;;;;;17.80;13.20;;;;;;;0.30;88.64;97554.33;86076;1294;23687;-70
2022/12/10 05:10:15;;;;;;;15.20;13.60;;;;;;;0.29;88.69;97564.36;86014;1286;99361;-71
2022/12/10 05:12:16;;;;;;;15.10;13.20;;;;;;;0.29;88.64;97567.98;86183;1281;25381;-70
2022/12/10 05:14:17;;;;;;;14.80;13.10;;;;;;;0.29;88.68;97565.23;86038;1287;25364;-71
2022/12/10 05:16:20;;;;;;;15.20;13.30;;;;;;;0.30;88.62;97558.64;85953;1286;22475;-71
2022/12/10 05:18:21;;;;;;;14.10;12.50;;;;;;;0.29;88.88;97554.00;86245;1283;22452;-71
2022/12/10 05:20:21;;;;;;;14.00;11.80;;;;;;;0.29;88.61;97548.29;86032;1283;99512;-70
2022/12/10 05:24:42;;;;;;;16.10;12.90;;;;;;;0.29;88.64;97562.48;86120;1283;24437;-70
2022/12/10 05:26:43;;;;;;;14.40;12.40;;;;;;;0.28;88.72;97570.61;86017;1277;98342;-70
2022/12/10 05:28:52;;;;;;;15.40;13.30;;;;;;;0.28;88.72;97574.77;86059;1276;22481;-70
2022/12/10 05:30:53;;;;;;;14.80;12.90;;;;;;;0.28;88.61;97579.95;86025;1286;22476;-71
2022/12/10 05:32:54;;;;;;;15.60;12.70;;;;;;;0.28;88.83;97587.55;86113;1284;99352;-70
2022/12/10 05:34:55;;;;;;;14.00;12.40;;;;;;;0.28;88.75;97600.16;85937;1286;24807;-69
2022/12/10 05:36:56;;;;;;;13.80;11.70;;;;;;;0.28;88.75;97603.77;85923;1286;22919;-70
2022/12/10 05:38:58;;;;;;;16.50;14.40;;;;;;;0.28;88.60;97615.70;86047;1277;99526;-71
2022/12/10 05:41:04;;;;;;;17.00;14.20;;;;;;;0.28;88.91;97616.23;86027;1280;24265;-70
2022/12/10 05:43:05;;;;;;;21.50;15.10;;;;;;;0.28;88.79;97623.13;86124;1283;22603;-71
2022/12/10 05:45:06;;;;;;;21.50;14.80;;;;;;;0.27;88.78;97628.00;86066;1279;99794;-71
2022/12/10 05:47:07;;;;;;;17.50;14.90;;;;;;;0.26;88.66;97625.60;86080;1276;22507;-70
2022/12/10 05:49:08;;;;;;;21.20;15.20;;;;;;;0.27;88.64;97619.90;86301;1284;22491;-71
2022/12/10 05:51:13;;;;;;;22.30;14.90;;;;;;;0.27;89.01;97611.42;86236;1286;99305;-70
2022/12/10 05:53:17;;;;;;;23.00;16.50;;;;;;;0.28;88.88;97614.17;86659;1283;22495;-71
2022/12/10 05:55:18;;;;;;;21.80;16.20;;;;;;;0.27;88.88;97618.33;88277;1307;22596;-72
2022/12/10 05:57:19;;;;;;;24.30;16.40;;;;;;;0.28;88.76;97621.24;88449;1307;98773;-72
2022/12/10 05:59:20;;;;;;;18.90;16.00;;;;;;;0.29;88.83;97621.20;88452;1277;22498;-72
2022/12/10 06:01:24;;;;;;;22.70;16.80;;;;;;;0.30;88.65;97611.66;88449;1301;22957;-72
2022/12/10 06:03:28;;;;;;;24.90;16.60;;;;;;;0.32;88.82;97603.33;88113;1311;98228;-72
2022/12/10 06:05:29;;;;;;;22.50;16.20;;;;;;;0.33;88.70;97592.73;86965;1287;22534;-72
2022/12/10 06:07:30;;;;;;;20.50;16.10;;;;;;;0.34;88.58;97587.38;86775;1309;22536;-71
2022/12/10 06:09:31;;;;;;;23.60;17.30;;;;;;;0.35;88.72;97583.89;86578;1309;99334;-72
2022/12/10 06:11:33;;;;;;;20.00;16.00;;;;;;;0.36;88.68;97585.27;86820;1288;23295;-71
2022/12/10 06:13:35;;;;;;;21.10;16.60;;;;;;;0.36;88.85;97591.81;86419;1311;22474;-71
2022/12/10 06:15:39;;;;;;;21.50;16.60;;;;;;;0.35;88.73;97595.48;86651;1308;99516;-71
2022/12/10 06:17:40;;;;;;;22.80;15.80;;;;;;;0.35;88.77;97599.28;86715;1294;24288;-72
2022/12/10 06:19:41;;;;;;;22.60;16.90;;;;;;;0.36;88.81;97596.48;86878;1308;22656;-72
2022/12/10 06:21:42;;;;;;;19.50;15.60;;;;;;;0.36;89.04;97600.09;86591;1308;99856;-72
2022/12/10 06:23:44;;;;;;;22.70;17.70;;;;;;;0.37;88.85;97591.10;86863;1300;22486;-73
2022/12/10 06:25:44;;;;;;;23.40;16.80;;;;;;;0.38;88.83;97585.71;86546;1311;22483;-72
2022/12/10 06:27:45;;;;;;;22.10;17.10;;;;;;;0.37;88.95;97586.23;86645;1293;98230;-73
2022/12/10 06:29:46;;;;;;;25.60;18.50;;;;;;;0.38;88.82;97589.16;86720;1305;24252;-71
2022/12/10 06:31:48;;;;;;;27.70;17.90;;;;;;;0.37;88.89;97589.86;86905;1283;22501;-71
2022/12/10 06:33:50;;;;;;;21.20;16.70;;;;;;;0.37;88.77;97591.09;86899;1288;98183;-71
2022/12/10 06:35:52;;;;;;;22.70;17.80;;;;;;;0.36;88.68;97596.46;87007;1306;22433;-72
2022/12/10 06:37:54;;;;;;;19.50;17.20;;;;;;;0.36;88.75;97602.86;86944;1294;24252;-72
2022/12/10 06:39:55;;;;;;;22.80;16.80;;;;;;;0.37;88.93;97610.10;86808;1286;98622;-71
2022/12/10 06:41:55;;;;;;;21.40;16.70;;;;;;;0.37;88.65;97611.98;87049;1308;24299;-71
2022/12/10 06:43:58;;;;;;;19.20;16.70;;;;;;;0.38;89.01;97617.85;86896;1293;22587;-71
2022/12/10 06:45:59;;;;;;;22.60;16.90;;;;;;;0.38;88.99;97626.83;86988;1286;98274;-72
2022/12/10 06:48:00;;;;;;;23.00;15.80;;;;;;;0.38;88.98;97633.58;86902;1280;24296;-72
2022/12/10 06:50:01;;;;;;;26.60;16.60;;;;;;;0.38;88.78;97632.86;87040;1293;22718;-72
2022/12/10 06:52:02;;;;;;;19.50;16.50;;;;;;;0.37;89.03;97634.62;86900;1283;99168;-73
2022/12/10 06:54:04;;;;;;;20.10;16.60;;;;;;;0.38;88.61;97643.77;86951;1286;24246;-72
2022/12/10 06:56:06;;;;;;;19.20;15.60;;;;;;;0.37;88.82;97644.48;87006;1302;22597;-72
2022/12/10 06:58:07;;;;;;;21.90;17.20;;;;;;;0.37;88.73;97645.86;86915;1286;99569;-72
2022/12/10 07:00:10;;;;;;;23.70;17.60;;;;;;;0.37;88.92;97647.23;86902;1286;23127;-73
2022/12/10 07:02:11;;;;;;;22.20;17.80;;;;;;;0.39;89.01;97655.48;87001;1287;24328;-73
2022/12/10 07:04:13;;;;;;;25.10;17.20;;;;;;;0.39;88.83;97661.17;86841;1294;99058;-72
2022/12/10 07:06:14;;;;;;;21.50;17.60;;;;;;;0.41;89.16;97663.73;86972;1280;22652;-72
2022/12/10 07:08:17;;;;;;;23.20;18.20;;;;;;;0.43;88.89;97669.02;86997;1286;24676;-73
2022/12/10 07:10:18;;;;;;;23.10;17.80;;;;;;;0.44;88.97;97675.89;87047;1288;22571;-73
2022/12/10 07:12:19;;;;;;;;;;;;;;;0.46;88.69;97685.71;87130;1286;22654;-72
2022/12/10 07:14:20;;;;;;;23.30;17.70;;;;;;;0.47;88.91;97689.30;87018;1290;85651;-72
2022/12/10 07:16:27;;;;;;;22.30;18.90;;;;;;;0.48;88.95;97683.39;87061;1278;22473;-71
2022/12/10 07:18:28;;;;;;;25.60;18.90;;;;;;;0.48;88.99;97680.95;87154;1286;22492;-71
2022/12/10 07:20:29;;;;;;;26.40;19.90;;;;;;;0.48;88.87;97680.06;87091;1286;98449;-74
2022/12/10 07:22:30;;;;;;;;;;;;;;;0.50;88.99;97673.30;87246;1279;22482;-72
2022/12/10 07:24:31;;;;;;;41.40;28.20;;;;;;;0.50;88.75;97675.20;87285;1284;24267;-73
2022/12/10 07:26:35;;;;;;;34.80;24.70;;;;;;;0.51;88.93;97676.55;87019;1287;100490;-73
2022/12/10 07:28:36;;;;;;;36.90;26.30;;;;;;;0.52;89.00;97678.44;87277;1288;25404;-74
2022/12/10 07:30:37;;;;;;;53.00;34.60;;;;;;;0.53;89.04;97688.10;86503;1280;22974;-73
2022/12/10 07:32:38;;;;;;;61.90;37.00;;;;;;;0.53;88.93;97690.17;86551;1280;99862;-74
2022/12/10 07:34:39;;;;;;;61.60;37.20;;;;;;;0.54;88.79;97696.02;86416;1293;26630;-74
2022/12/10 07:36:41;;;;;;;41.80;30.70;;;;;;;0.54;88.89;97696.02;86450;1284;23002;-74
2022/12/10 07:38:42;;;;;;;35.20;26.70;;;;;;;0.54;88.78;97694.46;86308;1283;99822;-74
2022/12/10 07:40:43;;;;;;;41.40;26.70;;;;;;;0.55;88.75;97688.91;86385;1283;22514;-74
2022/12/10 07:42:44;;;;;;;34.60;25.90;;;;;;;0.57;89.00;97688.68;86268;1280;25994;-75
2022/12/10 07:44:45;;;;;;;35.60;22.80;;;;;;;0.57;88.96;97690.08;86218;1280;99979;-74
2022/12/10 07:46:47;;;;;;;36.80;22.60;;;;;;;0.56;89.07;97695.94;86336;1279;25449;-74
2022/12/10 07:48:49;;;;;;;28.60;22.10;;;;;;;0.56;89.04;97692.88;86807;1293;22579;-75
2022/12/10 07:50:56;;;;;;;28.00;21.90;;;;;;;0.55;88.93;97696.33;86868;1284;99560;-74
2022/12/10 07:52:58;;;;;;;29.00;22.10;;;;;;;0.56;88.62;97692.34;86787;1286;22476;-74
2022/12/10 07:54:59;;;;;;;;;;;;;;;0.57;88.69;97691.60;86763;1276;22531;-74
2022/12/10 07:57:00;;;;;;;35.70;23.80;;;;;;;0.58;88.98;97684.67;86761;1284;86537;-74
2022/12/10 07:59:01;;;;;;;32.60;24.30;;;;;;;0.60;89.00;97680.80;86823;1276;22558;-73
2022/12/10 08:01:15;;;;;;;35.90;24.60;;;;;;;0.62;89.02;97677.81;86498;1280;24278;-74
2022/12/10 08:03:16;;;;;;;34.70;24.90;;;;;;;0.63;88.95;97679.16;86735;1283;98228;-74
2022/12/10 08:05:17;;;;;;;36.60;24.80;;;;;;;0.64;88.98;97681.23;86563;1281;24279;-72
2022/12/10 08:07:18;;;;;;;37.60;25.60;;;;;;;0.64;89.11;97675.83;86557;1280;24300;-75
2022/12/10 08:09:19;;;;;;;38.60;25.40;;;;;;;0.65;89.09;97681.85;86414;1279;100084;-75
2022/12/10 08:11:21;;;;;;;45.50;27.60;;;;;;;0.66;88.95;97682.71;86419;1287;22567;-74
2022/12/10 08:13:22;;;;;;;42.90;28.40;;;;;;;0.65;89.05;97681.34;86686;1284;22478;-75
2022/12/10 08:15:23;;;;;;;38.30;26.80;;;;;;;0.65;89.01;97684.61;86545;1276;98730;-75
2022/12/10 08:17:25;;;;;;;39.80;26.20;;;;;;;0.65;89.08;97687.91;86590;1279;25427;-74
2022/12/10 08:19:26;;;;;;;50.10;27.30;;;;;;;0.65;88.84;97688.06;86433;1279;22497;-75
2022/12/10 08:21:29;;;;;;;47.90;28.30;;;;;;;0.67;88.97;97688.53;86463;1280;99509;-74
2022/12/10 08:23:30;;;;;;;42.60;29.80;;;;;;;0.68;88.93;97690.41;86817;1284;22626;-75
2022/12/10 08:25:30;;;;;;;46.80;29.30;;;;;;;0.69;89.14;97695.75;86858;1280;24256;-74
2022/12/10 08:27:32;;;;;;;45.00;28.80;;;;;;;0.69;88.91;97700.95;86678;1277;100070;-74
2022/12/10 08:29:33;;;;;;;46.00;28.80;;;;;;;0.68;88.97;97702.36;86559;1287;23006;-77
2022/12/10 08:31:34;;;;;;;46.60;30.00;;;;;;;0.67;88.84;97707.89;86846;1279;22529;-75
2022/12/10 08:33:37;;;;;;;44.40;30.20;;;;;;;0.68;88.89;97713.76;86765;1300;98220;-78
2022/12/10 08:35:38;;;;;;;40.90;28.40;;;;;;;0.69;88.89;97719.98;86714;1279;22592;-78
2022/12/10 08:37:42;;;;;;;50.10;29.60;;;;;;;0.69;88.84;97723.08;86431;1280;23028;-76
2022/12/10 08:59:33;;;;;;;95.40;48.90;;;;;;;0.58;89.21;97708.52;85380;1318;542935;-73
2022/12/10 09:01:34;;;;;;;100.10;51.00;;;;;;;0.54;89.27;97714.86;87379;1285;24391;-71
2022/12/10 09:03:37;;;;;;;95.80;50.10;;;;;;;0.53;89.31;97711.94;86110;1292;98194;-73
2022/12/10 09:05:38;;;;;;;93.90;49.20;;;;;;;0.53;89.23;97706.06;85944;1287;22579;-73
2022/12/10 09:07:40;;;;;;;93.90;49.70;;;;;;;0.55;89.21;97701.70;86165;1287;22520;-72
2022/12/10 09:09:42;;;;;;;78.10;44.70;;;;;;;0.56;89.18;97702.87;85863;1290;98472;-73
2022/12/10 09:11:45;;;;;;;76.00;43.90;;;;;;;0.58;89.27;97704.73;85697;1298;26726;-71
2022/12/10 09:13:47;;;;;;;63.70;39.70;;;;;;;0.59;89.16;97705.20;86128;1294;88115;-75
2022/12/10 09:15:51;;;;;;;64.40;39.80;;;;;;;0.60;89.49;97704.11;86088;1292;96984;-76
2022/12/10 09:17:53;;;;;;;60.00;35.50;;;;;;;0.62;89.39;97700.28;86295;1290;22498;-75
2022/12/10 09:19:55;;;;;;;57.00;35.20;;;;;;;0.63;89.23;97703.71;86138;1303;24283;-74
2022/12/10 09:21:57;;;;;;;58.70;36.90;;;;;;;0.64;89.16;97707.66;86170;1291;97316;-73
2022/12/10 09:23:59;;;;;;;61.90;38.50;;;;;;;0.64;88.98;97709.20;86221;1284;22538;-77
2022/12/10 09:26:04;;;;;;;66.40;39.00;;;;;;;0.67;89.01;97709.64;86145;1290;24295;-74
2022/12/10 09:28:06;;;;;;;69.80;40.60;;;;;;;0.70;89.08;97703.00;85936;1290;99361;-75
2022/12/10 09:30:09;;;;;;;65.30;40.30;;;;;;;0.72;89.28;97699.63;85890;1293;22633;-78
2022/12/10 09:32:11;;;;;;;62.50;41.00;;;;;;;0.74;89.22;97695.27;86116;1286;22724;-76
2022/12/10 09:34:13;;;;;;;66.10;41.60;;;;;;;0.75;89.15;97700.77;86242;1290;97239;-76
2022/12/10 09:36:15;;;;;;;58.80;39.10;;;;;;;0.75;89.14;97695.23;86153;1293;22525;-75
2022/12/10 09:38:17;;;;;;;53.70;36.30;;;;;;;0.78;89.13;97694.11;86017;1293;22471;-76
2022/12/10 09:40:32;;;;;;;61.00;38.50;;;;;;;0.80;89.18;97687.80;85903;1287;97229;-76
2022/12/10 09:43:07;;;;;;;52.30;35.80;;;;;;;0.83;89.24;97687.73;86002;1291;22446;-77
2022/12/10 09:45:20;;;;;;;51.60;33.30;;;;;;;0.85;88.96;97685.42;86106;1290;97242;-76
2022/12/10 09:47:32;;;;;;;47.90;31.50;;;;;;;0.86;89.21;97682.29;86053;1284;22497;-76
2022/12/10 09:49:39;;;;;;;;;;;;;;;0.87;89.06;97681.73;86128;1289;22532;-76
2022/12/10 09:51:41;;;;;;;41.50;29.60;;;;;;;0.88;89.00;97688.11;86289;1285;83199;-75
2022/12/10 09:53:45;;;;;;;37.30;29.20;;;;;;;0.90;89.04;97690.99;85987;1293;24812;-76
2022/12/10 09:55:50;;;;;;;39.40;27.50;;;;;;;0.91;89.23;97687.87;85695;1289;25416;-74
2022/12/10 09:57:53;;;;;;;41.90;29.10;;;;;;;0.92;89.01;97691.11;85870;1281;98299;-72
2022/12/10 09:59:56;;;;;;;36.20;27.70;;;;;;;0.93;89.24;97691.42;86366;1291;22808;-76
2022/12/10 10:02:30;;;;;;;39.40;29.70;;;;;;;0.94;88.91;97692.25;86258;1283;22801;-76
2022/12/10 10:04:32;;;;;;;38.20;28.70;;;;;;;0.94;89.09;97692.09;86076;1283;22471;-73
2022/12/10 10:06:34;;;;;;;37.80;28.10;;;;;;;0.93;88.98;97691.93;85792;1291;22671;-73
2022/12/10 10:08:41;;;;;;;32.90;26.10;;;;;;;0.93;89.05;97695.05;85778;1291;98480;-74